createdAt,value
2019-05-25T00:00:39.728Z,94704.72
2019-05-25T00:03:06.494Z,94705.27
2019-05-25T00:05:33.223Z,94710.22
2019-05-25T00:07:59.867Z,94712.48
2019-05-25T00:10:26.572Z,94708.76
2019-05-25T00:12:53.207Z,94711.23
2019-05-25T00:15:19.867Z,94709.30
2019-05-25T00:17:46.505Z,94704.64
2019-05-25T00:20:13.146Z,94710.98
2019-05-25T00:22:39.784Z,94710.85
2019-05-25T00:25:06.424Z,94717.23
2019-05-25T00:29:59.714Z,94717.25
2019-05-25T00:32:26.356Z,94717.11
2019-05-25T00:34:53.077Z,94720.40
2019-05-25T00:37:19.728Z,94725.73
2019-05-25T00:39:46.377Z,94720.14
2019-05-25T00:42:13.049Z,94728.00
2019-05-25T00:44:39.743Z,94723.34
2019-05-25T00:47:06.377Z,94725.02
2019-05-25T00:49:33.020Z,94725.02
2019-05-25T00:51:59.689Z,94726.86
2019-05-25T00:54:28.234Z,94729.02
2019-05-25T00:56:53.031Z,94730.02
2019-05-25T00:59:19.677Z,94730.60
2019-05-25T01:01:46.328Z,94728.88
2019-05-25T01:04:12.992Z,94726.62
2019-05-25T01:06:39.770Z,94722.62
2019-05-25T01:09:06.450Z,94722.70
2019-05-25T01:11:35.954Z,94727.88
2019-05-25T01:14:02.591Z,94735.69
2019-05-25T01:16:29.244Z,94734.72
2019-05-25T01:18:55.869Z,94732.32
2019-05-25T01:21:22.516Z,94729.02
2019-05-25T01:23:49.155Z,94732.63
2019-05-25T01:26:15.829Z,94730.36
2019-05-25T01:28:42.466Z,94739.88
2019-05-25T01:31:09.166Z,94743.96
2019-05-25T01:33:35.811Z,94736.28
2019-05-25T01:36:02.454Z,94740.27
2019-05-25T01:38:29.084Z,94734.77
2019-05-25T01:40:55.825Z,94735.09
2019-05-25T01:43:22.476Z,94732.67
2019-05-25T01:45:49.141Z,94735.05
2019-05-25T01:50:42.435Z,94730.48
2019-05-25T01:53:11.534Z,94734.47
2019-05-25T01:55:35.719Z,94736.73
2019-05-25T01:58:02.362Z,94736.27
2019-05-25T02:00:29.020Z,94730.23
2019-05-25T02:02:55.705Z,94735.69
2019-05-25T02:05:22.305Z,94731.82
2019-05-25T02:07:49.011Z,94729.18
2019-05-25T02:10:15.660Z,94730.48
2019-05-25T02:12:42.298Z,94731.82
2019-05-25T02:15:08.938Z,94737.79
2019-05-25T02:17:35.574Z,94742.83
2019-05-25T02:20:02.237Z,94739.50
2019-05-25T02:24:55.548Z,94740.77
2019-05-25T02:27:22.180Z,94744.21
2019-05-25T02:29:48.856Z,94743.30
2019-05-25T02:32:15.500Z,94743.33
2019-05-25T02:34:42.153Z,94742.11
2019-05-25T02:37:08.796Z,94738.05
2019-05-25T02:39:35.437Z,94739.34
2019-05-25T02:42:02.134Z,94741.56
2019-05-25T02:44:28.772Z,94739.84
2019-05-25T02:46:55.408Z,94739.59
2019-05-25T02:49:22.059Z,94749.96
2019-05-25T02:51:48.704Z,94740.80
2019-05-25T02:54:15.348Z,94748.90
2019-05-25T02:56:41.985Z,94749.53
2019-05-25T02:59:08.667Z,94751.04
2019-05-25T03:01:35.345Z,94752.09
2019-05-25T03:04:01.987Z,94749.87
2019-05-25T03:06:28.633Z,94752.14
2019-05-25T03:08:55.271Z,94749.66
2019-05-25T03:11:21.926Z,94757.59
2019-05-25T03:13:48.574Z,94757.22
2019-05-25T03:16:15.208Z,94763.98
2019-05-25T03:18:41.852Z,94760.16
2019-05-25T03:21:08.511Z,94769.59
2019-05-25T03:23:35.177Z,94763.17
2019-05-25T03:26:01.816Z,94765.53
2019-05-25T03:28:28.489Z,94764.65
2019-05-25T03:30:55.140Z,94765.37
2019-05-25T03:33:21.774Z,94768.38
2019-05-25T03:35:48.433Z,94767.44
2019-05-25T03:38:15.292Z,94772.00
2019-05-25T03:40:41.970Z,94774.44
2019-05-25T03:45:35.364Z,94776.62
2019-05-25T03:48:02.009Z,94777.17
2019-05-25T03:50:28.649Z,94780.91
2019-05-25T03:52:55.418Z,94786.53
2019-05-25T03:55:22.063Z,94791.16
2019-05-25T03:57:48.714Z,94786.58
2019-05-25T04:00:15.405Z,94787.63
2019-05-25T04:02:42.307Z,94790.36
2019-05-25T04:05:08.932Z,94786.02
2019-05-25T04:07:35.565Z,94787.67
2019-05-25T04:10:02.490Z,94782.26
2019-05-25T04:12:29.095Z,94781.72
2019-05-25T04:14:55.737Z,94782.22
2019-05-25T04:19:49.015Z,94788.08
2019-05-25T04:22:15.651Z,94787.69
2019-05-25T04:24:42.292Z,94783.39
2019-05-25T04:27:09.020Z,94786.91
2019-05-25T04:29:35.668Z,94785.38
2019-05-25T04:32:02.337Z,94788.94
2019-05-25T04:34:28.971Z,94790.54
2019-05-25T04:36:55.628Z,94796.62
2019-05-25T04:39:22.266Z,94793.59
2019-05-25T04:41:48.917Z,94794.69
2019-05-25T04:44:15.556Z,94791.00
2019-05-25T04:46:42.201Z,94792.78
2019-05-25T04:49:08.839Z,94797.39
2019-05-25T04:51:35.482Z,94800.16
2019-05-25T04:54:02.123Z,94800.44
2019-05-25T04:56:38.975Z,94798.62
2019-05-25T04:58:55.413Z,94802.80
2019-05-25T05:01:22.762Z,94803.30
2019-05-25T05:03:48.718Z,94803.20
2019-05-25T05:06:15.372Z,94803.93
2019-05-25T05:08:42.013Z,94812.48
2019-05-25T05:11:08.689Z,94810.77
2019-05-25T05:13:35.678Z,94810.64
2019-05-25T05:16:02.368Z,94822.38
2019-05-25T05:18:29.001Z,94826.08
2019-05-25T05:20:55.674Z,94826.77
2019-05-25T05:23:22.354Z,94830.54
2019-05-25T05:25:48.969Z,94831.66
2019-05-25T05:28:15.609Z,94825.35
2019-05-25T05:30:42.280Z,94823.97
2019-05-25T05:33:08.977Z,94828.17
2019-05-25T05:35:38.833Z,94819.50
2019-05-25T05:40:28.905Z,94829.62
2019-05-25T05:42:55.549Z,94827.00
2019-05-25T05:45:23.490Z,94828.02
2019-05-25T05:47:48.877Z,94828.87
2019-05-25T05:50:15.519Z,94825.50
2019-05-25T05:52:42.241Z,94830.63
2019-05-25T05:55:08.878Z,94832.70
2019-05-25T05:57:35.516Z,94830.52
2019-05-25T06:00:02.157Z,94836.61
2019-05-25T06:02:28.836Z,94832.75
2019-05-25T06:04:55.482Z,94829.55
2019-05-25T06:07:22.117Z,94833.81
2019-05-25T06:09:48.770Z,94830.68
2019-05-25T06:14:42.060Z,94836.70
2019-05-25T06:17:08.741Z,94840.66
2019-05-25T06:19:35.377Z,94839.95
2019-05-25T06:22:02.033Z,94845.89
2019-05-25T06:24:28.688Z,94840.98
2019-05-25T06:26:55.329Z,94844.50
2019-05-25T06:29:21.961Z,94842.22
2019-05-25T06:31:48.616Z,94842.91
2019-05-25T06:34:15.266Z,94840.66
2019-05-25T06:36:42.239Z,94853.86
2019-05-25T06:39:08.884Z,94850.93
2019-05-25T06:41:35.558Z,94848.86
2019-05-25T06:44:02.211Z,94850.88
2019-05-25T06:46:28.849Z,94852.90
2019-05-25T06:48:55.501Z,94849.00
2019-05-25T06:51:22.170Z,94849.83
2019-05-25T06:53:48.780Z,94847.72
2019-05-25T06:56:15.495Z,94843.77
2019-05-25T06:58:42.137Z,94855.69
2019-05-25T07:01:08.772Z,94854.08
2019-05-25T07:03:35.436Z,94849.88
2019-05-25T07:06:02.262Z,94853.27
2019-05-25T07:08:28.918Z,94849.28
2019-05-25T07:10:55.588Z,94853.37
2019-05-25T07:13:22.228Z,94850.39
2019-05-25T07:15:48.901Z,94852.27
2019-05-25T07:18:15.561Z,94852.50
2019-05-25T07:20:42.196Z,94852.27
2019-05-25T07:23:08.882Z,94869.58
2019-05-25T07:25:35.519Z,94865.55
2019-05-25T07:28:02.163Z,94861.80
2019-05-25T07:30:28.807Z,94873.78
2019-05-25T07:32:55.779Z,94870.69
2019-05-25T07:35:22.120Z,94869.49
2019-05-25T07:37:48.754Z,94872.23
2019-05-25T07:40:15.436Z,94866.78
2019-05-25T07:42:42.060Z,94863.79
2019-05-25T07:45:08.737Z,94858.06
2019-05-25T07:47:35.375Z,94861.36
2019-05-25T07:50:02.025Z,94867.02
2019-05-25T07:52:28.664Z,94870.17
2019-05-25T07:54:55.306Z,94872.57
2019-05-25T07:57:21.941Z,94866.80
2019-05-25T07:59:48.584Z,94872.11
2019-05-25T08:02:15.249Z,94874.34
2019-05-25T08:04:41.885Z,94875.62
2019-05-25T08:07:08.555Z,94883.62
2019-05-25T08:09:35.198Z,94883.29
2019-05-25T08:12:01.833Z,94881.05
2019-05-25T08:14:28.485Z,94882.32
2019-05-25T08:16:55.143Z,94886.94
2019-05-25T08:19:21.784Z,94888.03
2019-05-25T08:21:48.473Z,94894.68
2019-05-25T08:24:15.121Z,94892.99
2019-05-25T08:26:43.130Z,94889.75
2019-05-25T08:29:08.405Z,94892.32
2019-05-25T08:31:35.050Z,94901.31
2019-05-25T08:34:01.728Z,94897.53
2019-05-25T08:36:29.877Z,94899.97
2019-05-25T08:38:55.100Z,94896.82
2019-05-25T08:41:21.662Z,94902.20
2019-05-25T08:43:48.340Z,94889.09
2019-05-25T08:46:14.976Z,94894.39
2019-05-25T08:48:41.745Z,94903.34
2019-05-25T08:51:08.392Z,94911.11
2019-05-25T08:53:41.304Z,94915.33
2019-05-25T08:56:01.720Z,94914.73
2019-05-25T08:58:28.380Z,94913.22
2019-05-25T09:00:55.029Z,94921.16
2019-05-25T09:03:21.674Z,94923.05
2019-05-25T09:05:48.541Z,94924.52
2019-05-25T09:08:15.253Z,94923.89
2019-05-25T09:10:41.921Z,94914.60
2019-05-25T09:13:08.573Z,94919.30
2019-05-25T09:15:35.309Z,94928.22
2019-05-25T09:18:01.937Z,94927.33
2019-05-25T09:20:28.584Z,94929.48
2019-05-25T09:22:55.224Z,94925.64
2019-05-25T09:25:21.891Z,94930.39
2019-05-25T09:27:48.566Z,94936.33
2019-05-25T09:30:15.202Z,94928.58
2019-05-25T09:32:41.861Z,94932.28
2019-05-25T09:35:08.624Z,94935.18
2019-05-25T09:37:35.239Z,94934.30
2019-05-25T09:40:01.919Z,94934.56
2019-05-25T09:42:28.561Z,94937.33
2019-05-25T09:44:55.204Z,94934.75
2019-05-25T09:47:21.845Z,94935.22
2019-05-25T09:49:48.515Z,94931.91
2019-05-25T09:52:15.153Z,94934.82
2019-05-25T09:54:41.802Z,94939.83
2019-05-25T09:57:08.502Z,94935.41
2019-05-25T09:59:35.212Z,94932.06
2019-05-25T10:02:01.851Z,94928.83
2019-05-25T10:04:28.501Z,94936.52
2019-05-25T10:06:55.144Z,94949.72
2019-05-25T10:09:21.785Z,94965.32
2019-05-25T10:11:48.430Z,94970.23
2019-05-25T10:14:15.071Z,94967.72
2019-05-25T10:16:41.726Z,94971.75
2019-05-25T10:19:08.404Z,94961.98
2019-05-25T10:21:35.048Z,94952.69
2019-05-25T10:24:01.740Z,94952.69
2019-05-25T10:26:28.433Z,94948.34
2019-05-25T10:28:55.064Z,94948.21
2019-05-25T10:31:21.721Z,94946.45
2019-05-25T10:36:15.013Z,94945.03
2019-05-25T10:38:41.663Z,94942.86
2019-05-25T10:41:08.316Z,94940.91
2019-05-25T10:43:34.982Z,94933.13
2019-05-25T10:48:28.244Z,94926.56
2019-05-25T10:50:54.960Z,94922.78
2019-05-25T10:53:21.595Z,94921.75
2019-05-25T10:55:48.235Z,94919.35
2019-05-25T10:58:14.879Z,94917.71
2019-05-25T11:00:41.521Z,94916.77
2019-05-25T11:03:08.181Z,94916.16
2019-05-25T11:05:34.961Z,94908.39
2019-05-25T11:10:28.232Z,94913.64
2019-05-25T11:12:54.873Z,94911.47
2019-05-25T11:15:21.509Z,94914.66
2019-05-25T11:17:48.191Z,94904.31
2019-05-25T11:20:14.939Z,94914.81
2019-05-25T11:22:41.572Z,94905.92
2019-05-25T11:25:08.237Z,94897.02
2019-05-25T11:27:34.860Z,94894.89
2019-05-25T11:30:08.963Z,94902.73
2019-05-25T11:32:28.156Z,94897.61
2019-05-25T11:34:54.817Z,94906.89
2019-05-25T11:37:21.454Z,94914.08
2019-05-25T11:39:48.097Z,94907.91
2019-05-25T11:42:14.738Z,94916.56
2019-05-25T11:44:41.446Z,94909.97
2019-05-25T11:47:08.082Z,94914.41
2019-05-25T11:49:34.733Z,94915.30
2019-05-25T11:52:01.377Z,94921.60
2019-05-25T11:54:28.017Z,94921.27
2019-05-25T11:56:54.660Z,94925.42
2019-05-25T11:59:21.308Z,94931.85
2019-05-25T12:01:47.959Z,94924.55
2019-05-25T12:04:14.613Z,94927.56
2019-05-25T12:06:41.390Z,94923.50
2019-05-25T12:09:08.033Z,94917.78
2019-05-25T12:11:34.677Z,94927.44
2019-05-25T12:14:01.317Z,94915.34
2019-05-25T12:16:27.965Z,94922.69
2019-05-25T12:18:54.665Z,94914.33
2019-05-25T12:21:21.269Z,94912.47
2019-05-25T12:23:47.904Z,94915.30
2019-05-25T12:26:14.559Z,94919.59
2019-05-25T12:31:07.860Z,94914.92
2019-05-25T12:33:34.495Z,94903.86
2019-05-25T12:36:01.143Z,94899.30
2019-05-25T12:38:27.773Z,94899.96
2019-05-25T12:40:54.429Z,94898.80
2019-05-25T12:43:21.065Z,94897.02
2019-05-25T12:45:47.709Z,94894.89
2019-05-25T12:48:14.353Z,94902.45
2019-05-25T12:50:40.995Z,94899.63
2019-05-25T12:53:07.628Z,94896.53
2019-05-25T12:55:34.269Z,94904.34
2019-05-25T12:58:00.904Z,94908.97
2019-05-25T13:00:27.545Z,94901.48
2019-05-25T13:05:32.895Z,94907.78
2019-05-25T13:07:47.732Z,94907.12
2019-05-25T13:10:14.380Z,94914.19
2019-05-25T13:12:41.038Z,94912.72
2019-05-25T13:15:07.678Z,94904.05
2019-05-25T13:17:34.316Z,94897.75
2019-05-25T13:20:00.953Z,94900.27
2019-05-25T13:22:27.592Z,94895.91
2019-05-25T13:24:54.252Z,94890.77
2019-05-25T13:27:20.889Z,94899.05
2019-05-25T13:29:47.531Z,94893.13
2019-05-25T13:32:14.176Z,94892.95
2019-05-25T13:34:40.817Z,94905.53
2019-05-25T13:37:07.509Z,94899.42
2019-05-25T13:39:34.160Z,94901.11
2019-05-25T13:42:00.821Z,94899.30
2019-05-25T13:44:27.452Z,94889.13
2019-05-25T13:46:54.111Z,94899.72
2019-05-25T13:51:47.511Z,94893.87
2019-05-25T13:54:14.156Z,94888.88
2019-05-25T13:56:40.792Z,94892.20
2019-05-25T13:59:07.428Z,94883.33
2019-05-25T14:01:34.069Z,94888.37
2019-05-25T14:04:00.726Z,94887.24
2019-05-25T14:06:27.541Z,94887.06
2019-05-25T14:08:54.188Z,94889.59
2019-05-25T14:11:20.828Z,94887.70
2019-05-25T14:13:47.477Z,94887.06
2019-05-25T14:16:15.458Z,94878.53
2019-05-25T14:18:40.753Z,94877.06
2019-05-25T14:21:07.409Z,94880.44
2019-05-25T14:26:00.693Z,94883.33
2019-05-25T14:28:27.361Z,94887.91
2019-05-25T14:30:53.997Z,94888.03
2019-05-25T14:33:20.664Z,94885.25
2019-05-25T14:35:47.302Z,94888.34
2019-05-25T14:38:13.957Z,94884.29
2019-05-25T14:40:40.641Z,94887.07
2019-05-25T14:43:07.323Z,94889.42
2019-05-25T14:45:33.937Z,94885.05
2019-05-25T14:48:00.585Z,94884.63
2019-05-25T14:50:27.224Z,94883.59
2019-05-25T14:52:53.868Z,94877.84
2019-05-25T14:55:20.508Z,94880.63
2019-05-25T14:57:47.168Z,94879.20
2019-05-25T15:00:13.817Z,94875.14
2019-05-25T15:02:40.456Z,94877.19
2019-05-25T15:05:07.093Z,94872.95
2019-05-25T15:07:33.731Z,94868.33
2019-05-25T15:10:00.377Z,94870.19
2019-05-25T15:12:27.015Z,94870.72
2019-05-25T15:14:53.721Z,94875.81
2019-05-25T15:17:20.361Z,94872.02
2019-05-25T15:19:46.998Z,94870.72
2019-05-25T15:22:13.807Z,94871.14
2019-05-25T15:24:40.430Z,94871.86
2019-05-25T15:27:07.075Z,94878.50
2019-05-25T15:29:33.756Z,94880.88
2019-05-25T15:32:00.411Z,94881.06
2019-05-25T15:34:27.054Z,94878.33
2019-05-25T15:36:53.688Z,94879.84
2019-05-25T15:39:20.366Z,94875.94
2019-05-25T15:41:47.045Z,94879.51
2019-05-25T15:44:13.692Z,94888.20
2019-05-25T15:46:40.400Z,94884.59
2019-05-25T15:49:07.014Z,94878.33
2019-05-25T15:51:33.660Z,94887.66
2019-05-25T15:54:00.300Z,94888.66
2019-05-25T15:56:26.999Z,94891.19
2019-05-25T15:58:53.637Z,94893.12
2019-05-25T16:01:20.297Z,94891.66
2019-05-25T16:03:46.961Z,94894.16
2019-05-25T16:06:13.804Z,94895.77
2019-05-25T16:08:40.449Z,94892.87
2019-05-25T16:11:07.089Z,94905.81
2019-05-25T16:13:33.743Z,94907.48
2019-05-25T16:16:00.384Z,94906.02
2019-05-25T16:20:53.678Z,94903.83
2019-05-25T16:23:20.365Z,94916.51
2019-05-25T16:25:47.053Z,94918.88
2019-05-25T16:28:13.684Z,94916.42
2019-05-25T16:30:40.329Z,94926.19
2019-05-25T16:33:12.622Z,94921.03
2019-05-25T16:35:33.682Z,94922.19
2019-05-25T16:38:00.470Z,94931.92
2019-05-25T16:40:26.987Z,94926.98
2019-05-25T16:42:53.640Z,94936.11
2019-05-25T16:45:20.305Z,94933.47
2019-05-25T16:47:46.938Z,94936.20
2019-05-25T16:50:14.948Z,94934.03
2019-05-25T16:52:40.244Z,94934.72
2019-05-25T16:55:06.945Z,94935.03
2019-05-25T16:57:33.536Z,94935.16
2019-05-25T17:00:00.180Z,94944.31
2019-05-25T17:02:26.826Z,94939.34
2019-05-25T17:04:53.466Z,94945.74
2019-05-25T17:07:20.136Z,94941.27
2019-05-25T17:09:46.775Z,94943.27
2019-05-25T17:12:13.458Z,94949.81
2019-05-25T17:14:40.099Z,94954.42
2019-05-25T17:17:06.740Z,94954.04
2019-05-25T17:19:33.388Z,94957.25
2019-05-25T17:22:00.024Z,94955.11
2019-05-25T17:24:26.693Z,94951.61
2019-05-25T17:26:53.337Z,94949.09
2019-05-25T17:29:19.974Z,94951.62
2019-05-25T17:31:46.617Z,94952.81
2019-05-25T17:34:13.264Z,94954.83
2019-05-25T17:36:39.914Z,94962.91
2019-05-25T17:39:06.588Z,94964.46
2019-05-25T17:41:33.267Z,94966.91
2019-05-25T17:43:59.903Z,94968.33
2019-05-25T17:46:26.555Z,94948.94
2019-05-25T17:48:54.215Z,94966.62
2019-05-25T17:51:19.831Z,94971.28
2019-05-25T17:53:46.506Z,94968.98
2019-05-25T17:56:13.141Z,94975.06
2019-05-25T17:58:39.824Z,94976.01
2019-05-25T18:01:06.471Z,94972.47
2019-05-25T18:03:33.137Z,94975.75
2019-05-25T18:05:59.952Z,94975.50
2019-05-25T18:08:26.621Z,94982.10
2019-05-25T18:10:54.731Z,94971.88
2019-05-25T18:13:21.465Z,94973.02
2019-05-25T18:15:46.605Z,94975.66
2019-05-25T18:18:13.252Z,94983.58
2019-05-25T18:20:39.916Z,94983.70
2019-05-25T18:23:06.550Z,94985.55
2019-05-25T18:25:33.229Z,94982.69
2019-05-25T18:27:59.870Z,94994.05
2019-05-25T18:30:26.566Z,94993.25
2019-05-25T18:32:53.201Z,94997.08
2019-05-25T18:37:46.487Z,95003.26
2019-05-25T18:40:13.138Z,95011.95
2019-05-25T18:42:39.799Z,95015.62
2019-05-25T18:45:06.441Z,95015.70
2019-05-25T18:47:33.080Z,95017.77
2019-05-25T18:49:59.724Z,95018.05
2019-05-25T18:52:26.378Z,95016.70
2019-05-25T18:54:53.023Z,95016.88
2019-05-25T18:57:19.665Z,95028.02
2019-05-25T18:59:46.315Z,95018.80
2019-05-25T19:02:14.557Z,95023.72
2019-05-25T19:04:46.410Z,95034.36
2019-05-25T19:07:06.415Z,95038.61
2019-05-25T19:09:33.048Z,95040.63
2019-05-25T19:11:59.725Z,95046.18
2019-05-25T19:14:26.402Z,95043.22
2019-05-25T19:16:53.052Z,95052.15
2019-05-25T19:19:19.749Z,95040.80
2019-05-25T19:21:46.359Z,95044.98
2019-05-25T19:24:13.026Z,95048.23
2019-05-25T19:26:39.706Z,95049.75
2019-05-25T19:29:06.364Z,95055.97
2019-05-25T19:31:33.016Z,95053.44
2019-05-25T19:33:59.687Z,95049.13
2019-05-25T19:36:26.289Z,95061.58
2019-05-25T19:38:52.940Z,95062.36
2019-05-25T19:41:19.581Z,95062.87
2019-05-25T19:46:12.890Z,95065.84
2019-05-25T19:48:39.529Z,95070.00
2019-05-25T19:51:06.176Z,95076.15
2019-05-25T19:53:32.813Z,95073.88
2019-05-25T19:55:59.467Z,95071.10
2019-05-25T19:58:26.112Z,95077.31
2019-05-25T20:00:52.785Z,95073.31
2019-05-25T20:03:19.419Z,95075.05
2019-05-25T20:05:46.195Z,95074.44
2019-05-25T20:08:12.832Z,95082.39
2019-05-25T20:10:39.542Z,95079.20
2019-05-25T20:13:06.186Z,95088.03
2019-05-25T20:15:32.876Z,95096.14
2019-05-25T20:17:59.521Z,95092.73
2019-05-25T20:20:26.206Z,95095.63
2019-05-25T20:22:52.837Z,95105.63
2019-05-25T20:25:19.495Z,95104.64
2019-05-25T20:27:46.140Z,95105.91
2019-05-25T20:30:12.838Z,95107.92
2019-05-25T20:32:39.484Z,95107.87
2019-05-25T20:35:06.121Z,95106.44
2019-05-25T20:37:32.775Z,95109.88
2019-05-25T20:39:59.425Z,95107.30
2019-05-25T20:42:26.066Z,95106.06
2019-05-25T20:44:52.704Z,95108.58
2019-05-25T20:47:19.357Z,95101.92
2019-05-25T20:49:45.997Z,95098.27
2019-05-25T20:54:39.321Z,95105.45
2019-05-25T20:57:05.960Z,95107.98
2019-05-25T20:59:32.605Z,95106.84
2019-05-25T21:01:59.241Z,95109.11
2019-05-25T21:04:25.881Z,95110.25
2019-05-25T21:06:52.668Z,95107.73
2019-05-25T21:09:19.347Z,95102.36
2019-05-25T21:11:46.020Z,95080.75
2019-05-25T21:14:12.661Z,95108.61
2019-05-25T21:16:39.310Z,95112.92
2019-05-25T21:19:07.254Z,95116.35
2019-05-25T21:21:32.585Z,95123.28
2019-05-25T21:23:59.228Z,95116.50
2019-05-25T21:28:52.555Z,95118.04
2019-05-25T21:31:19.237Z,95119.78
2019-05-25T21:33:45.877Z,95121.14
2019-05-25T21:36:12.526Z,95119.17
2019-05-25T21:38:39.166Z,95122.05
2019-05-25T21:41:05.837Z,95121.59
2019-05-25T21:43:32.477Z,95123.46
2019-05-25T21:45:59.126Z,95125.23
2019-05-25T21:48:25.762Z,95123.26
2019-05-25T21:50:52.476Z,95129.79
2019-05-25T21:53:19.080Z,95120.21
2019-05-25T21:55:45.805Z,95129.44
2019-05-25T21:58:12.452Z,95130.92
2019-05-25T22:00:39.097Z,95126.36
2019-05-25T22:03:05.779Z,95131.70
2019-05-25T22:05:32.588Z,95128.57
2019-05-25T22:07:59.227Z,95138.41
2019-05-25T22:10:25.867Z,95138.86
2019-05-25T22:12:52.517Z,95135.78
2019-05-25T22:15:19.182Z,95138.93
2019-05-25T22:17:45.830Z,95139.06
2019-05-25T22:20:12.490Z,95145.97
2019-05-25T22:22:39.144Z,95152.81
2019-05-25T22:25:05.784Z,95151.81
2019-05-25T22:27:32.460Z,95143.57
2019-05-25T22:29:59.104Z,95145.08
2019-05-25T22:32:25.746Z,95148.28
2019-05-25T22:34:52.394Z,95151.66
2019-05-25T22:37:19.038Z,95145.50
2019-05-25T22:39:45.719Z,95145.61
2019-05-25T22:42:12.365Z,95145.63
2019-05-25T22:44:39.029Z,95143.50
2019-05-25T22:47:05.705Z,95148.28
2019-05-25T22:49:32.343Z,95145.77
2019-05-25T22:51:59.042Z,95147.03
2019-05-25T22:54:25.629Z,95139.09
2019-05-25T22:56:52.277Z,95142.27
2019-05-25T22:59:18.958Z,95143.65
2019-05-25T23:01:47.779Z,95142.52
2019-05-25T23:04:12.243Z,95147.30
2019-05-25T23:06:56.071Z,95145.95
2019-05-25T23:09:05.661Z,95147.44
2019-05-25T23:11:32.308Z,95149.34
2019-05-25T23:13:58.941Z,95148.23
2019-05-25T23:16:25.585Z,95142.81
2019-05-25T23:18:52.225Z,95150.47
2019-05-25T23:21:18.903Z,95152.63
2019-05-25T23:23:45.541Z,95154.78
2019-05-25T23:26:12.220Z,95152.89
2019-05-25T23:28:38.868Z,95140.94
2019-05-25T23:31:05.512Z,95147.77
2019-05-25T23:33:32.211Z,95146.12
2019-05-25T23:35:58.807Z,95144.19
2019-05-25T23:38:25.444Z,95147.97
2019-05-25T23:40:52.093Z,95146.59
2019-05-25T23:43:20.125Z,95149.55
2019-05-25T23:45:46.808Z,95156.70
2019-05-25T23:48:13.474Z,95159.60
2019-05-25T23:50:40.111Z,95161.00
2019-05-25T23:53:06.756Z,95158.23
2019-05-25T23:55:33.411Z,95153.32
2019-05-25T23:58:00.114Z,95155.19
